Time;durP1;ratioP1;P1;durP2;ratioP2;P2;SDS_P1;SDS_P2;PMS_P1;PMS_P2;Temp;Humidity;BMP_temperature;BMP_pressure;BME280_temperature;BME280_humidity;BME280_pressure;Samples;Min_cycle;Max_cycle;Signal;HPM_P1;HPM_P2
2023/05/12 00:00:42;;;;;;;;;;;;;;;;;;4958965;28;20012;-93
2023/05/12 00:03:08;;;;;;;;;;;;;;;;;;4959354;28;20012;-94
2023/05/12 00:05:34;;;;;;;;;;;;;;;;;;4957566;28;19992;-94
2023/05/12 00:08:00;;;;;;;;;;;;;;;;;;4958554;28;19986;-92
2023/05/12 00:10:27;;;;;;;;;;;;;;;;;;4959088;28;19957;-92
2023/05/12 00:12:54;;;;;;;;;;;;;;;;;;4959395;28;19922;-92
2023/05/12 00:15:20;;;;;;;;;;;;;;;;;;4959191;28;19965;-93
2023/05/12 00:17:46;;;;;;;;;;;;;;;;;;4960773;28;19948;-92
2023/05/12 00:20:12;;;;;;;;;;;;;;;;;;4966665;28;19926;-93
2023/05/12 00:22:37;;;;;;;;;;;;;;;;;;4959415;28;19976;-92
2023/05/12 00:25:03;;;;;;;;;;;;;;;;;;4959177;28;20389;-92
2023/05/12 00:27:30;;;;;;;;;;;;;;;;;;4958686;28;19937;-92
2023/05/12 00:29:57;;;;;;;;;;;;;;;;;;4958838;28;19926;-92
2023/05/12 00:32:23;;;;;;;;;;;;;;;;;;4975385;28;20405;-92
2023/05/12 00:34:49;;;;;;;;;;;;;;;;;;4959084;28;19922;-91
2023/05/12 00:37:15;;;;;;;;;;;;;;;;;;4958827;28;19929;-92
2023/05/12 00:39:41;;;;;;;;;;;;;;;;;;4958692;28;19926;-91
2023/05/12 00:42:07;;;;;;;;;;;;;;;;;;4959003;28;19933;-91
2023/05/12 00:44:33;;;;;;;;;;;;;;;;;;4958968;28;20407;-93
2023/05/12 00:46:59;;;;;;;;;;;;;;;;;;4958917;28;19928;-92
2023/05/12 00:49:25;;;;;;;;;;;;;;;;;;4974766;28;19922;-93
2023/05/12 00:51:51;;;;;;;;;;;;;;;;;;4958873;28;19922;-93
2023/05/12 00:54:17;;;;;;;;;;;;;;;;;;4958854;28;20302;-93
2023/05/12 00:56:43;;;;;;;;;;;;;;;;;;4958657;28;19929;-94
2023/05/12 00:59:09;;;;;;;;;;;;;;;;;;4958559;28;20427;-93
2023/05/12 01:01:34;;;;;;;;;;;;;;;;;;4958736;28;19999;-92
2023/05/12 01:04:00;;;;;;;;;;;;;;;;;;4958648;28;20405;-92
2023/05/12 01:06:27;;;;;;;;;;;;;;;;;;4958372;28;19961;-92
2023/05/12 01:08:53;;;;;;;;;;;;;;;;;;4958651;28;19961;-93
2023/05/12 01:11:19;;;;;;;;;;;;;;;;;;4958411;28;20004;-93
2023/05/12 01:13:45;;;;;;;;;;;;;;;;;;4974429;28;19922;-93
2023/05/12 01:16:11;;;;;;;;;;;;;;;;;;4958340;28;19922;-92
2023/05/12 01:18:37;;;;;;;;;;;;;;;;;;4958228;28;19973;-93
2023/05/12 01:21:03;;;;;;;;;;;;;;;;;;4958242;28;19922;-92
2023/05/12 01:23:29;;;;;;;;;;;;;;;;;;4957978;28;19928;-92
2023/05/12 01:25:55;;;;;;;;;;;;;;;;;;4957255;28;19922;-93
2023/05/12 01:28:21;;;;;;;;;;;;;;;;;;4958308;28;19969;-92
2023/05/12 01:30:47;;;;;;;;;;;;;;;;;;4957915;28;19922;-93
2023/05/12 01:33:13;;;;;;;;;;;;;;;;;;4958259;28;19985;-93
2023/05/12 01:35:39;;;;;;;;;;;;;;;;;;4957852;28;19933;-93
2023/05/12 01:38:04;;;;;;;;;;;;;;;;;;4974234;28;19922;-92
2023/05/12 01:40:30;;;;;;;;;;;;;;;;;;4957535;28;19934;-93
2023/05/12 01:42:56;;;;;;;;;;;;;;;;;;4957970;28;20323;-94
2023/05/12 01:45:22;;;;;;;;;;;;;;;;;;4958089;28;19922;-93
2023/05/12 01:47:48;;;;;;;;;;;;;;;;;;4957932;28;20048;-93
2023/05/12 01:50:14;;;;;;;;;;;;;;;;;;4958053;28;20004;-93
2023/05/12 01:52:40;;;;;;;;;;;;;;;;;;4957975;28;19969;-93
2023/05/12 01:55:07;;;;;;;;;;;;;;;;;;4957711;28;19926;-92
2023/05/12 01:57:32;;;;;;;;;;;;;;;;;;4957588;28;19922;-93
2023/05/12 01:59:59;;;;;;;;;;;;;;;;;;4957506;28;19937;-92
2023/05/12 02:02:25;;;;;;;;;;;;;;;;;;4957563;28;20295;-93
2023/05/12 02:04:51;;;;;;;;;;;;;;;;;;4957657;28;19922;-92
2023/05/12 02:07:17;;;;;;;;;;;;;;;;;;4957436;28;19922;-93
2023/05/12 02:09:43;;;;;;;;;;;;;;;;;;4957350;28;19929;-93
2023/05/12 02:12:09;;;;;;;;;;;;;;;;;;4957624;28;20367;-93
2023/05/12 02:14:35;;;;;;;;;;;;;;;;;;4957374;28;20081;-93
2023/05/12 02:17:01;;;;;;;;;;;;;;;;;;4957200;28;19922;-94
2023/05/12 02:19:27;;;;;;;;;;;;;;;;;;4957318;28;19988;-93
2023/05/12 02:21:53;;;;;;;;;;;;;;;;;;4957355;28;19969;-93
2023/05/12 02:24:20;;;;;;;;;;;;;;;;;;4957276;28;19932;-93
2023/05/12 02:26:46;;;;;;;;;;;;;;;;;;4973125;28;20298;-93
2023/05/12 02:29:11;;;;;;;;;;;;;;;;;;4957511;28;19928;-93
2023/05/12 02:31:37;;;;;;;;;;;;;;;;;;4957558;28;19926;-93
2023/05/12 02:34:03;;;;;;;;;;;;;;;;;;4957482;28;19922;-91
2023/05/12 02:36:29;;;;;;;;;;;;;;;;;;4956837;28;19925;-92
2023/05/12 02:38:55;;;;;;;;;;;;;;;;;;4957024;28;19926;-92
2023/05/12 02:41:21;;;;;;;;;;;;;;;;;;4956846;28;19935;-92
2023/05/12 02:43:47;;;;;;;;;;;;;;;;;;4956916;28;19922;-92
2023/05/12 02:46:13;;;;;;;;;;;;;;;;;;4957013;28;19926;-94
2023/05/12 02:48:39;;;;;;;;;;;;;;;;;;4956989;28;19926;-93
2023/05/12 02:51:05;;;;;;;;;;;;;;;;;;4957000;28;19929;-94
2023/05/12 02:53:31;;;;;;;;;;;;;;;;;;4957188;28;20387;-93
2023/05/12 02:55:57;;;;;;;;;;;;;;;;;;4956618;28;19974;-93
2023/05/12 02:58:22;;;;;;;;;;;;;;;;;;4956930;28;19926;-92
2023/05/12 03:00:48;;;;;;;;;;;;;;;;;;4956904;28;19969;-93
2023/05/12 03:03:14;;;;;;;;;;;;;;;;;;4956640;28;19922;-93
2023/05/12 03:05:40;;;;;;;;;;;;;;;;;;4956136;28;20391;-92
2023/05/12 03:08:06;;;;;;;;;;;;;;;;;;4956652;28;19923;-92
2023/05/12 03:10:32;;;;;;;;;;;;;;;;;;4956848;28;19932;-92
2023/05/12 03:12:58;;;;;;;;;;;;;;;;;;4956769;28;20397;-92
2023/05/12 03:15:24;;;;;;;;;;;;;;;;;;4956646;28;19926;-93
2023/05/12 03:17:49;;;;;;;;;;;;;;;;;;4957033;28;20519;-92
2023/05/12 03:20:16;;;;;;;;;;;;;;;;;;4956646;28;19933;-92
2023/05/12 03:22:42;;;;;;;;;;;;;;;;;;4956741;28;19923;-93
2023/05/12 03:25:07;;;;;;;;;;;;;;;;;;4956640;28;19929;-93
2023/05/12 03:27:33;;;;;;;;;;;;;;;;;;4956849;28;19922;-93
2023/05/12 03:30:00;;;;;;;;;;;;;;;;;;4956605;28;19922;-93
2023/05/12 03:32:26;;;;;;;;;;;;;;;;;;4956992;28;19922;-92
2023/05/12 03:34:52;;;;;;;;;;;;;;;;;;4956567;28;19929;-92
2023/05/12 03:37:18;;;;;;;;;;;;;;;;;;4956515;28;20017;-92
2023/05/12 03:39:44;;;;;;;;;;;;;;;;;;4956404;28;19926;-92
2023/05/12 03:42:10;;;;;;;;;;;;;;;;;;4956374;28;20470;-92
2023/05/12 03:44:36;;;;;;;;;;;;;;;;;;4955791;28;19938;-93
2023/05/12 03:47:02;;;;;;;;;;;;;;;;;;4972545;28;20412;-93
2023/05/12 03:49:28;;;;;;;;;;;;;;;;;;4957490;28;19929;-93
2023/05/12 03:51:54;;;;;;;;;;;;;;;;;;4959940;28;20398;-93
2023/05/12 03:54:20;;;;;;;;;;;;;;;;;;4959727;28;19949;-91
2023/05/12 03:56:46;;;;;;;;;;;;;;;;;;4960123;28;19929;-93
2023/05/12 03:59:12;;;;;;;;;;;;;;;;;;4975880;28;19926;-92
2023/05/12 04:01:38;;;;;;;;;;;;;;;;;;4958919;28;20007;-92
2023/05/12 04:04:04;;;;;;;;;;;;;;;;;;4953174;28;20395;-92
2023/05/12 04:06:30;;;;;;;;;;;;;;;;;;4955141;28;19938;-91
2023/05/12 04:08:56;;;;;;;;;;;;;;;;;;4953818;28;19922;-91
2023/05/12 04:11:22;;;;;;;;;;;;;;;;;;4949817;28;19930;-92
2023/05/12 04:13:48;;;;;;;;;;;;;;;;;;4950721;28;19970;-91
2023/05/12 04:16:14;;;;;;;;;;;;;;;;;;4954830;28;19973;-91
2023/05/12 04:18:40;;;;;;;;;;;;;;;;;;4948564;29;20287;-91
2023/05/12 04:21:06;;;;;;;;;;;;;;;;;;4955129;28;19930;-91
2023/05/12 04:23:32;;;;;;;;;;;;;;;;;;4946980;28;19969;-91
2023/05/12 04:25:57;;;;;;;;;;;;;;;;;;4953707;28;19941;-92
2023/05/12 04:28:23;;;;;;;;;;;;;;;;;;4949396;28;19929;-92
2023/05/12 04:30:49;;;;;;;;;;;;;;;;;;4948983;28;19922;-92
2023/05/12 04:33:15;;;;;;;;;;;;;;;;;;4950061;28;19980;-92
2023/05/12 04:35:41;;;;;;;;;;;;;;;;;;4952684;28;20215;-92
2023/05/12 04:38:07;;;;;;;;;;;;;;;;;;4947563;29;19922;-91
2023/05/12 04:40:33;;;;;;;;;;;;;;;;;;4950439;28;19933;-91
2023/05/12 04:42:59;;;;;;;;;;;;;;;;;;4948355;28;19931;-92
2023/05/12 04:45:25;;;;;;;;;;;;;;;;;;4955627;28;19929;-92
2023/05/12 04:47:51;;;;;;;;;;;;;;;;;;4950824;28;20006;-91
2023/05/12 04:50:17;;;;;;;;;;;;;;;;;;4949149;28;19922;-92
2023/05/12 04:52:42;;;;;;;;;;;;;;;;;;4951750;28;20387;-92
2023/05/12 04:55:08;;;;;;;;;;;;;;;;;;4950991;28;19973;-91
2023/05/12 04:57:34;;;;;;;;;;;;;;;;;;4949017;29;20299;-93
2023/05/12 05:00:03;;;;;;;;;;;;;;;;;;4946717;28;19926;-92
2023/05/12 05:02:29;;;;;;;;;;;;;;;;;;4955138;28;19922;-92
2023/05/12 05:04:55;;;;;;;;;;;;;;;;;;4948003;28;19929;-91
2023/05/12 05:07:21;;;;;;;;;;;;;;;;;;4948808;28;19922;-92
2023/05/12 05:09:47;;;;;;;;;;;;;;;;;;4949389;28;19926;-92
2023/05/12 05:12:13;;;;;;;;;;;;;;;;;;4954159;28;19933;-91
2023/05/12 05:14:39;;;;;;;;;;;;;;;;;;4966302;28;19962;-92
2023/05/12 05:17:06;;;;;;;;;;;;;;;;;;4951020;28;20012;-93
2023/05/12 05:19:32;;;;;;;;;;;;;;;;;;4951999;29;20020;-92
2023/05/12 05:21:58;;;;;;;;;;;;;;;;;;4943757;28;19982;-92
2023/05/12 05:24:24;;;;;;;;;;;;;;;;;;4949115;28;20405;-92
2023/05/12 05:26:50;;;;;;;;;;;;;;;;;;4948099;28;19922;-93
2023/05/12 05:29:16;;;;;;;;;;;;;;;;;;4963856;28;19922;-92
2023/05/12 05:31:43;;;;;;;;;;;;;;;;;;4945924;28;19988;-92
2023/05/12 05:34:09;;;;;;;;;;;;;;;;;;4949546;28;19933;-92
2023/05/12 05:36:34;;;;;;;;;;;;;;;;;;4963060;28;19923;-91
2023/05/12 05:39:00;;;;;;;;;;;;;;;;;;4964279;28;19926;-91
2023/05/12 05:41:26;;;;;;;;;;;;;;;;;;4950488;28;19968;-92
2023/05/12 05:43:52;;;;;;;;;;;;;;;;;;4948619;28;20005;-92
2023/05/12 05:46:18;;;;;;;;;;;;;;;;;;4948028;28;19930;-92
2023/05/12 05:48:44;;;;;;;;;;;;;;;;;;4947257;28;19926;-92
2023/05/12 05:51:10;;;;;;;;;;;;;;;;;;4948665;28;19990;-91
2023/05/12 05:53:36;;;;;;;;;;;;;;;;;;4946263;28;19929;-92
2023/05/12 05:56:02;;;;;;;;;;;;;;;;;;4949579;28;19926;-93
2023/05/12 05:58:28;;;;;;;;;;;;;;;;;;4945254;28;19926;-91
2023/05/12 06:00:54;;;;;;;;;;;;;;;;;;4946567;28;20011;-91
2023/05/12 06:03:20;;;;;;;;;;;;;;;;;;4946145;28;20425;-91
2023/05/12 06:05:45;;;;;;;;;;;;;;;;;;4950020;28;20378;-92
2023/05/12 06:08:12;;;;;;;;;;;;;;;;;;4947132;28;20288;-92
2023/05/12 06:10:38;;;;;;;;;;;;;;;;;;4948684;28;19922;-92
2023/05/12 06:13:03;;;;;;;;;;;;;;;;;;4945684;28;20014;-92
2023/05/12 06:15:29;;;;;;;;;;;;;;;;;;4949517;28;19922;-92
2023/05/12 06:17:55;;;;;;;;;;;;;;;;;;4953371;28;19929;-92
2023/05/12 06:20:22;;;;;;;;;;;;;;;;;;4946377;28;19973;-93
2023/05/12 06:22:48;;;;;;;;;;;;;;;;;;4947744;28;19926;-93
2023/05/12 06:25:13;;;;;;;;;;;;;;;;;;4947673;28;19929;-92
2023/05/12 06:27:39;;;;;;;;;;;;;;;;;;4949822;28;19926;-92
2023/05/12 06:30:06;;;;;;;;;;;;;;;;;;4945986;28;20324;-92
2023/05/12 06:32:32;;;;;;;;;;;;;;;;;;4965356;28;20007;-92
2023/05/12 06:34:58;;;;;;;;;;;;;;;;;;4949015;28;19955;-92
2023/05/12 06:37:24;;;;;;;;;;;;;;;;;;4948713;28;19922;-92
2023/05/12 06:39:50;;;;;;;;;;;;;;;;;;4948824;28;19930;-92
2023/05/12 06:42:16;;;;;;;;;;;;;;;;;;4947074;28;19922;-92
2023/05/12 06:44:42;;;;;;;;;;;;;;;;;;4946757;28;20006;-92
2023/05/12 06:47:08;;;;;;;;;;;;;;;;;;4965235;28;19922;-92
2023/05/12 06:49:35;;;;;;;;;;;;;;;;;;4948475;28;19926;-91
2023/05/12 06:52:01;;;;;;;;;;;;;;;;;;4945594;29;19922;-91
2023/05/12 06:54:27;;;;;;;;;;;;;;;;;;4952890;28;19930;-92
2023/05/12 06:56:53;;;;;;;;;;;;;;;;;;4953436;28;19922;-92
2023/05/12 06:59:19;;;;;;;;;;;;;;;;;;4946110;28;20052;-91
2023/05/12 07:01:46;;;;;;;;;;;;;;;;;;4954305;28;20424;-91
2023/05/12 07:04:12;;;;;;;;;;;;;;;;;;4949443;28;19922;-92
2023/05/12 07:06:38;;;;;;;;;;;;;;;;;;4951442;28;19933;-91
2023/05/12 07:09:04;;;;;;;;;;;;;;;;;;4952289;28;20238;-90
2023/05/12 07:11:30;;;;;;;;;;;;;;;;;;4952023;28;19926;-91
2023/05/12 07:13:56;;;;;;;;;;;;;;;;;;4954520;28;20368;-91
2023/05/12 07:16:21;;;;;;;;;;;;;;;;;;4963885;28;19922;-91
2023/05/12 07:18:47;;;;;;;;;;;;;;;;;;4948136;28;20379;-92
2023/05/12 07:21:14;;;;;;;;;;;;;;;;;;4948209;28;19933;-91
2023/05/12 07:23:40;;;;;;;;;;;;;;;;;;4968060;28;19930;-92
2023/05/12 07:26:06;;;;;;;;;;;;;;;;;;4953129;28;19945;-92
2023/05/12 07:28:34;;;;;;;;;;;;;;;;;;4955841;28;19972;-93
2023/05/12 07:31:00;;;;;;;;;;;;;;;;;;4969558;28;20360;-92
2023/05/12 07:33:26;;;;;;;;;;;;;;;;;;4955824;28;19965;-92
2023/05/12 07:35:52;;;;;;;;;;;;;;;;;;4956031;28;20020;-93
2023/05/12 07:38:18;;;;;;;;;;;;;;;;;;4954099;28;20376;-93
2023/05/12 07:40:44;;;;;;;;;;;;;;;;;;4956732;28;19926;-92
2023/05/12 07:43:10;;;;;;;;;;;;;;;;;;4969620;28;19923;-94
2023/05/12 07:45:36;;;;;;;;;;;;;;;;;;4955534;28;19922;-94
2023/05/12 07:48:02;;;;;;;;;;;;;;;;;;4954453;28;20005;-94
2023/05/12 07:50:28;;;;;;;;;;;;;;;;;;4953929;28;19922;-94
2023/05/12 07:52:54;;;;;;;;;;;;;;;;;;4957945;28;19929;-94
2023/05/12 07:55:20;;;;;;;;;;;;;;;;;;4970965;28;19969;-93
2023/05/12 07:57:46;;;;;;;;;;;;;;;;;;4955014;28;19926;-93
2023/05/12 08:00:12;;;;;;;;;;;;;;;;;;4969808;28;19926;-93
2023/05/12 08:02:38;;;;;;;;;;;;;;;;;;4953208;28;19922;-92
2023/05/12 08:05:04;;;;;;;;;;;;;;;;;;4957814;28;20303;-94
2023/05/12 08:07:30;;;;;;;;;;;;;;;;;;4954127;28;19923;-92
2023/05/12 08:09:56;;;;;;;;;;;;;;;;;;4954716;28;19922;-95
2023/05/12 08:12:21;;;;;;;;;;;;;;;;;;4954132;29;20295;-94
2023/05/12 08:14:47;;;;;;;;;;;;;;;;;;4956573;28;19937;-93
2023/05/12 08:17:13;;;;;;;;;;;;;;;;;;4969043;28;19922;-94
2023/05/12 08:19:39;;;;;;;;;;;;;;;;;;4956740;28;19934;-94
2023/05/12 08:22:05;;;;;;;;;;;;;;;;;;4973146;28;20391;-92
2023/05/12 08:24:31;;;;;;;;;;;;;;;;;;4950364;28;19926;-94
2023/05/12 08:26:57;;;;;;;;;;;;;;;;;;4952864;28;20288;-93
2023/05/12 08:29:23;;;;;;;;;;;;;;;;;;4953465;28;19937;-93
2023/05/12 08:31:49;;;;;;;;;;;;;;;;;;4956115;28;19977;-93
2023/05/12 08:34:15;;;;;;;;;;;;;;;;;;4969032;28;20009;-94
2023/05/12 08:36:41;;;;;;;;;;;;;;;;;;4970358;28;20409;-95
2023/05/12 08:39:09;;;;;;;;;;;;;;;;;;4955165;28;20025;-96
2023/05/12 08:41:34;;;;;;;;;;;;;;;;;;4955930;28;20395;-96
2023/05/12 08:44:00;;;;;;;;;;;;;;;;;;4955478;28;19980;-96
2023/05/12 08:46:26;;;;;;;;;;;;;;;;;;4960065;28;20045;-96
2023/05/12 08:48:52;;;;;;;;;;;;;;;;;;4955430;28;19933;-96
2023/05/12 08:51:18;;;;;;;;;;;;;;;;;;4953327;28;19930;-96
2023/05/12 08:53:44;;;;;;;;;;;;;;;;;;4970427;28;20013;-96
2023/05/12 08:56:11;;;;;;;;;;;;;;;;;;4970458;28;20402;-96
2023/05/12 08:58:37;;;;;;;;;;;;;;;;;;4953467;28;20004;-95
2023/05/12 09:01:03;;;;;;;;;;;;;;;;;;4955447;28;20020;-94
2023/05/12 09:03:29;;;;;;;;;;;;;;;;;;4951392;28;19922;-96
2023/05/12 09:05:55;;;;;;;;;;;;;;;;;;4954836;28;19922;-95
2023/05/12 09:08:21;;;;;;;;;;;;;;;;;;4954780;28;19977;-96
2023/05/12 09:10:47;;;;;;;;;;;;;;;;;;4965875;28;20112;-96
2023/05/12 09:13:13;;;;;;;;;;;;;;;;;;4953028;28;19926;-96
2023/05/12 09:15:39;;;;;;;;;;;;;;;;;;4962712;28;19933;-96
2023/05/12 09:18:05;;;;;;;;;;;;;;;;;;4965788;28;19922;-96
2023/05/12 09:20:31;;;;;;;;;;;;;;;;;;4950418;28;19926;-96
2023/05/12 09:22:57;;;;;;;;;;;;;;;;;;4956165;28;20464;-96
2023/05/12 09:25:23;;;;;;;;;;;;;;;;;;4955275;28;20042;-95
2023/05/12 09:27:49;;;;;;;;;;;;;;;;;;4957986;28;19933;-94
2023/05/12 09:30:15;;;;;;;;;;;;;;;;;;4953297;28;19984;-96
2023/05/12 09:32:41;;;;;;;;;;;;;;;;;;4952917;28;20276;-96
2023/05/12 09:35:06;;;;;;;;;;;;;;;;;;4951168;28;19929;-95
2023/05/12 09:37:32;;;;;;;;;;;;;;;;;;4954895;28;19929;-95
2023/05/12 09:39:59;;;;;;;;;;;;;;;;;;4950644;28;19980;-96
2023/05/12 09:42:25;;;;;;;;;;;;;;;;;;4953509;28;19966;-96
2023/05/12 09:44:51;;;;;;;;;;;;;;;;;;4950494;28;19922;-96
2023/05/12 09:47:16;;;;;;;;;;;;;;;;;;4948891;28;19954;-95
2023/05/12 09:49:42;;;;;;;;;;;;;;;;;;4954306;28;19929;-92
2023/05/12 09:52:09;;;;;;;;;;;;;;;;;;4965172;28;19922;-90
2023/05/12 09:57:04;;;;;;;;;;;;;;;;;;4974595;28;19922;-90
2023/05/12 09:59:30;;;;;;;;;;;;;;;;;;4953847;28;20064;-91
2023/05/12 10:01:56;;;;;;;;;;;;;;;;;;4954532;28;20422;-91
2023/05/12 10:04:22;;;;;;;;;;;;;;;;;;4953052;28;19922;-91
2023/05/12 10:06:48;;;;;;;;;;;;;;;;;;4950319;28;20005;-90
2023/05/12 10:09:14;;;;;;;;;;;;;;;;;;4968400;28;20410;-91
2023/05/12 10:11:40;;;;;;;;;;;;;;;;;;4951728;28;19936;-90
2023/05/12 10:14:08;;;;;;;;;;;;;;;;;;4947070;28;20013;-91
2023/05/12 10:16:34;;;;;;;;;;;;;;;;;;4960258;28;19954;-90
2023/05/12 10:19:01;;;;;;;;;;;;;;;;;;4954887;28;20003;-91
2023/05/12 10:21:27;;;;;;;;;;;;;;;;;;4952437;28;19981;-92
2023/05/12 10:23:53;;;;;;;;;;;;;;;;;;4954367;28;20335;-90
2023/05/12 10:26:19;;;;;;;;;;;;;;;;;;4969106;28;19925;-91
2023/05/12 10:28:44;;;;;;;;;;;;;;;;;;4948345;28;19926;-91
2023/05/12 10:31:10;;;;;;;;;;;;;;;;;;4953749;28;20394;-91
2023/05/12 10:33:36;;;;;;;;;;;;;;;;;;4955641;28;19949;-91
2023/05/12 10:36:02;;;;;;;;;;;;;;;;;;4954793;28;19922;-91
2023/05/12 10:38:28;;;;;;;;;;;;;;;;;;4944788;28;19966;-92
2023/05/12 10:40:56;;;;;;;;;;;;;;;;;;4954460;28;19965;-90
2023/05/12 10:43:22;;;;;;;;;;;;;;;;;;4963145;28;19927;-91
2023/05/12 10:45:48;;;;;;;;;;;;;;;;;;4948502;28;19922;-91
2023/05/12 10:48:14;;;;;;;;;;;;;;;;;;4968311;28;19922;-92
2023/05/12 10:50:40;;;;;;;;;;;;;;;;;;4953785;28;19922;-91
2023/05/12 10:53:06;;;;;;;;;;;;;;;;;;4954885;28;19923;-91
2023/05/12 10:55:32;;;;;;;;;;;;;;;;;;4951423;28;20441;-91
2023/05/12 10:57:58;;;;;;;;;;;;;;;;;;4950754;28;20020;-91
2023/05/12 11:00:24;;;;;;;;;;;;;;;;;;4955828;28;19977;-91
2023/05/12 11:02:50;;;;;;;;;;;;;;;;;;4953804;28;19929;-91
2023/05/12 11:05:17;;;;;;;;;;;;;;;;;;4955702;28;19955;-91
2023/05/12 11:07:43;;;;;;;;;;;;;;;;;;4953484;28;19933;-91
2023/05/12 11:10:09;;;;;;;;;;;;;;;;;;4956608;28;19951;-90
2023/05/12 11:12:36;;;;;;;;;;;;;;;;;;4955554;28;19926;-91
2023/05/12 11:15:02;;;;;;;;;;;;;;;;;;4952907;28;19946;-91
2023/05/12 11:17:28;;;;;;;;;;;;;;;;;;4953603;28;20298;-91
2023/05/12 11:19:54;;;;;;;;;;;;;;;;;;4972281;28;19926;-91
2023/05/12 11:22:20;;;;;;;;;;;;;;;;;;4953245;28;19926;-91
2023/05/12 11:24:46;;;;;;;;;;;;;;;;;;4954543;28;19965;-91
2023/05/12 11:27:12;;;;;;;;;;;;;;;;;;4957670;28;19929;-90
2023/05/12 11:29:40;;;;;;;;;;;;;;;;;;4951825;28;19922;-91
2023/05/12 11:32:06;;;;;;;;;;;;;;;;;;4954416;28;19930;-91
2023/05/12 11:34:32;;;;;;;;;;;;;;;;;;4950177;28;20426;-90
2023/05/12 11:36:58;;;;;;;;;;;;;;;;;;4971377;28;20009;-91
2023/05/12 11:39:24;;;;;;;;;;;;;;;;;;4954229;28;20017;-91
2023/05/12 11:41:50;;;;;;;;;;;;;;;;;;4952274;28;19970;-91
2023/05/12 11:44:15;;;;;;;;;;;;;;;;;;4951712;28;19929;-90
2023/05/12 11:46:41;;;;;;;;;;;;;;;;;;4957338;28;20356;-90
2023/05/12 11:49:07;;;;;;;;;;;;;;;;;;4956496;28;20387;-90
2023/05/12 11:51:33;;;;;;;;;;;;;;;;;;4954517;28;19929;-90
2023/05/12 11:53:59;;;;;;;;;;;;;;;;;;4952824;28;19925;-90
2023/05/12 11:56:25;;;;;;;;;;;;;;;;;;4970248;28;19929;-90
2023/05/12 11:58:51;;;;;;;;;;;;;;;;;;4953786;28;19992;-91
2023/05/12 12:01:17;;;;;;;;;;;;;;;;;;4951855;28;20387;-90
2023/05/12 12:03:43;;;;;;;;;;;;;;;;;;4969903;28;19926;-92
2023/05/12 12:06:09;;;;;;;;;;;;;;;;;;4971337;28;19949;-91
2023/05/12 12:08:39;;;;;;;;;;;;;;;;;;4954475;28;19926;-91
2023/05/12 12:11:06;;;;;;;;;;;;;;;;;;4967620;28;19926;-90
2023/05/12 12:13:32;;;;;;;;;;;;;;;;;;4952994;28;20009;-91
2023/05/12 12:15:57;;;;;;;;;;;;;;;;;;4952951;28;19994;-89
2023/05/12 12:18:24;;;;;;;;;;;;;;;;;;4967684;28;20346;-90
2023/05/12 12:20:49;;;;;;;;;;;;;;;;;;4953179;28;20175;-91
2023/05/12 12:23:15;;;;;;;;;;;;;;;;;;4965565;28;19973;-90
2023/05/12 12:25:42;;;;;;;;;;;;;;;;;;4954785;29;19922;-90
2023/05/12 12:28:08;;;;;;;;;;;;;;;;;;4971326;28;19984;-91
2023/05/12 12:30:34;;;;;;;;;;;;;;;;;;4954475;28;19922;-89
2023/05/12 12:33:00;;;;;;;;;;;;;;;;;;4948675;28;19926;-89
2023/05/12 12:35:26;;;;;;;;;;;;;;;;;;4955017;28;19969;-90
2023/05/12 12:37:52;;;;;;;;;;;;;;;;;;4949939;28;19962;-90
2023/05/12 12:40:18;;;;;;;;;;;;;;;;;;4949983;28;20017;-90
2023/05/12 12:42:43;;;;;;;;;;;;;;;;;;4973096;28;19922;-90
2023/05/12 12:45:09;;;;;;;;;;;;;;;;;;4969608;28;19926;-91
2023/05/12 12:47:36;;;;;;;;;;;;;;;;;;4969917;28;19926;-90
2023/05/12 12:50:02;;;;;;;;;;;;;;;;;;4957139;28;19930;-90
2023/05/12 12:52:28;;;;;;;;;;;;;;;;;;4973773;28;19969;-90
2023/05/12 12:54:54;;;;;;;;;;;;;;;;;;4954310;28;20019;-90
2023/05/12 12:57:21;;;;;;;;;;;;;;;;;;4956327;28;19932;-90
2023/05/12 12:59:48;;;;;;;;;;;;;;;;;;4954949;28;20423;-91
2023/05/12 13:02:14;;;;;;;;;;;;;;;;;;4956346;28;19965;-90
2023/05/12 13:04:40;;;;;;;;;;;;;;;;;;4953356;28;19969;-91
2023/05/12 13:07:06;;;;;;;;;;;;;;;;;;4953638;28;19933;-90
2023/05/12 13:09:32;;;;;;;;;;;;;;;;;;4956840;28;19922;-90
2023/05/12 13:11:58;;;;;;;;;;;;;;;;;;4955108;28;19922;-90
2023/05/12 13:14:24;;;;;;;;;;;;;;;;;;4969813;28;20431;-90
2023/05/12 13:16:51;;;;;;;;;;;;;;;;;;4952846;28;20012;-89
2023/05/12 13:19:17;;;;;;;;;;;;;;;;;;4968919;28;19926;-90
2023/05/12 13:21:43;;;;;;;;;;;;;;;;;;4955205;28;19937;-91
2023/05/12 13:24:09;;;;;;;;;;;;;;;;;;4966430;28;20359;-90
2023/05/12 13:26:35;;;;;;;;;;;;;;;;;;4953002;28;19933;-90
2023/05/12 13:29:01;;;;;;;;;;;;;;;;;;4955629;28;19969;-91
2023/05/12 13:31:26;;;;;;;;;;;;;;;;;;4954478;28;20154;-90
2023/05/12 13:33:52;;;;;;;;;;;;;;;;;;4946104;28;20376;-90
2023/05/12 13:36:18;;;;;;;;;;;;;;;;;;4951497;28;19922;-90
2023/05/12 13:38:45;;;;;;;;;;;;;;;;;;4969101;28;20279;-90
2023/05/12 13:41:11;;;;;;;;;;;;;;;;;;4952761;28;19969;-90
2023/05/12 13:43:37;;;;;;;;;;;;;;;;;;4950003;28;19960;-90
2023/05/12 13:46:03;;;;;;;;;;;;;;;;;;4955318;28;19934;-89
2023/05/12 13:48:29;;;;;;;;;;;;;;;;;;4954181;28;19980;-90
2023/05/12 13:50:55;;;;;;;;;;;;;;;;;;4951975;28;19929;-90
2023/05/12 13:53:21;;;;;;;;;;;;;;;;;;4956126;28;19973;-90
2023/05/12 13:55:47;;;;;;;;;;;;;;;;;;4952096;28;19922;-90
2023/05/12 13:58:13;;;;;;;;;;;;;;;;;;4965201;28;20005;-90
2023/05/12 14:00:39;;;;;;;;;;;;;;;;;;4952804;28;20061;-90
2023/05/12 14:03:05;;;;;;;;;;;;;;;;;;4953908;28;19926;-90
2023/05/12 14:05:31;;;;;;;;;;;;;;;;;;4962747;28;19948;-90
2023/05/12 14:07:57;;;;;;;;;;;;;;;;;;4969228;28;19937;-90
2023/05/12 14:10:22;;;;;;;;;;;;;;;;;;4952390;28;19929;-90
2023/05/12 14:12:48;;;;;;;;;;;;;;;;;;4950399;28;20441;-91
2023/05/12 14:15:14;;;;;;;;;;;;;;;;;;4964701;28;19926;-91
2023/05/12 14:17:40;;;;;;;;;;;;;;;;;;4948393;28;19973;-91
2023/05/12 14:20:06;;;;;;;;;;;;;;;;;;4955311;28;19953;-91
2023/05/12 14:22:32;;;;;;;;;;;;;;;;;;4953032;28;19929;-91
2023/05/12 14:24:59;;;;;;;;;;;;;;;;;;4950903;28;20399;-91
2023/05/12 14:27:25;;;;;;;;;;;;;;;;;;4966541;28;19922;-89
2023/05/12 14:29:51;;;;;;;;;;;;;;;;;;4954732;28;19933;-90
2023/05/12 14:32:17;;;;;;;;;;;;;;;;;;4965428;28;19922;-90
2023/05/12 14:34:43;;;;;;;;;;;;;;;;;;4947617;28;19992;-91
2023/05/12 14:37:08;;;;;;;;;;;;;;;;;;4949468;28;20016;-91
2023/05/12 14:39:34;;;;;;;;;;;;;;;;;;4950522;28;19926;-91
2023/05/12 14:42:00;;;;;;;;;;;;;;;;;;4951408;28;19922;-91
2023/05/12 14:44:26;;;;;;;;;;;;;;;;;;4952013;28;19928;-91
2023/05/12 14:46:52;;;;;;;;;;;;;;;;;;4954714;28;19929;-91
2023/05/12 14:49:20;;;;;;;;;;;;;;;;;;4949795;28;19934;-91
2023/05/12 14:51:46;;;;;;;;;;;;;;;;;;4948383;28;19922;-90
2023/05/12 14:54:12;;;;;;;;;;;;;;;;;;4964773;28;19974;-90
2023/05/12 14:56:41;;;;;;;;;;;;;;;;;;4950871;28;19930;-90
2023/05/12 14:59:07;;;;;;;;;;;;;;;;;;4965705;28;19934;-90
2023/05/12 15:01:33;;;;;;;;;;;;;;;;;;4955694;28;20295;-90
2023/05/12 15:03:59;;;;;;;;;;;;;;;;;;4953135;28;19922;-90
2023/05/12 15:06:25;;;;;;;;;;;;;;;;;;4969952;28;20481;-89
2023/05/12 15:08:51;;;;;;;;;;;;;;;;;;4949168;28;19930;-90
2023/05/12 15:11:17;;;;;;;;;;;;;;;;;;4966245;28;20282;-90
2023/05/12 15:13:43;;;;;;;;;;;;;;;;;;4948973;28;19950;-91
2023/05/12 15:16:09;;;;;;;;;;;;;;;;;;4968187;28;19928;-90
2023/05/12 15:18:35;;;;;;;;;;;;;;;;;;4948968;28;19922;-91
2023/05/12 15:21:01;;;;;;;;;;;;;;;;;;4950268;28;19926;-90
2023/05/12 15:23:26;;;;;;;;;;;;;;;;;;4949418;28;20315;-90
2023/05/12 15:25:52;;;;;;;;;;;;;;;;;;4951304;28;19930;-90
2023/05/12 15:28:19;;;;;;;;;;;;;;;;;;4965181;28;19973;-90
2023/05/12 15:30:45;;;;;;;;;;;;;;;;;;4952105;28;19928;-90
2023/05/12 15:33:11;;;;;;;;;;;;;;;;;;4967008;28;20017;-90
2023/05/12 15:35:37;;;;;;;;;;;;;;;;;;4953712;28;19937;-89
2023/05/12 15:38:03;;;;;;;;;;;;;;;;;;4947724;28;19930;-89
2023/05/12 15:40:29;;;;;;;;;;;;;;;;;;4953709;28;20350;-90
2023/05/12 15:42:56;;;;;;;;;;;;;;;;;;4948021;28;19929;-89
2023/05/12 15:45:21;;;;;;;;;;;;;;;;;;4965807;28;20303;-90
2023/05/12 15:47:47;;;;;;;;;;;;;;;;;;4957243;28;19929;-90
2023/05/12 15:50:18;;;;;;;;;;;;;;;;;;4971621;28;19926;-90
2023/05/12 15:52:44;;;;;;;;;;;;;;;;;;4953431;28;19962;-90
2023/05/12 15:55:10;;;;;;;;;;;;;;;;;;4968946;28;20402;-89
2023/05/12 15:57:36;;;;;;;;;;;;;;;;;;4953855;28;20391;-90
2023/05/12 16:00:02;;;;;;;;;;;;;;;;;;4952472;28;19973;-90
2023/05/12 16:02:28;;;;;;;;;;;;;;;;;;4951852;28;19922;-89
2023/05/12 16:04:54;;;;;;;;;;;;;;;;;;4952154;28;19932;-90
2023/05/12 16:07:20;;;;;;;;;;;;;;;;;;4956835;28;19930;-90
2023/05/12 16:09:46;;;;;;;;;;;;;;;;;;4953681;28;19930;-89
2023/05/12 16:12:12;;;;;;;;;;;;;;;;;;4953198;28;19923;-89
2023/05/12 16:14:37;;;;;;;;;;;;;;;;;;4968539;28;19922;-89
2023/05/12 16:17:05;;;;;;;;;;;;;;;;;;4969905;28;19922;-89
2023/05/12 16:19:44;;;;;;;;;;;;;;;;;;4954826;28;19926;-89
2023/05/12 16:22:10;;;;;;;;;;;;;;;;;;4940348;29;19926;-89
2023/05/12 16:24:36;;;;;;;;;;;;;;;;;;4974890;28;19922;-89
2023/05/12 16:27:03;;;;;;;;;;;;;;;;;;4959646;28;19922;-89
2023/05/12 16:29:29;;;;;;;;;;;;;;;;;;4959694;28;19922;-89
2023/05/12 16:31:55;;;;;;;;;;;;;;;;;;4954306;28;19926;-89
2023/05/12 16:34:21;;;;;;;;;;;;;;;;;;4970077;28;19945;-89
2023/05/12 16:36:47;;;;;;;;;;;;;;;;;;4953990;28;20001;-89
2023/05/12 16:39:13;;;;;;;;;;;;;;;;;;4949005;28;19933;-89